sensor_id;sensor_type;location;lat;lon;timestamp;temperature;humidity
5520;DHT22;2782;52.362;10.012;2023-05-07T00:01:00;18.30;81.50
5520;DHT22;2782;52.362;10.012;2023-05-07T00:02:03;18.30;81.50
5520;DHT22;2782;52.362;10.012;2023-05-07T00:03:05;18.30;81.50
5520;DHT22;2782;52.362;10.012;2023-05-07T00:04:07;18.30;81.50
5520;DHT22;2782;52.362;10.012;2023-05-07T00:05:08;18.30;81.50
5520;DHT22;2782;52.362;10.012;2023-05-07T00:06:10;18.30;81.60
5520;DHT22;2782;52.362;10.012;2023-05-07T00:07:13;18.30;81.40
5520;DHT22;2782;52.362;10.012;2023-05-07T00:08:15;18.30;81.40
5520;DHT22;2782;52.362;10.012;2023-05-07T00:09:15;18.30;81.40
5520;DHT22;2782;52.362;10.012;2023-05-07T00:10:18;18.30;81.40
5520;DHT22;2782;52.362;10.012;2023-05-07T00:11:19;18.30;81.30
5520;DHT22;2782;52.362;10.012;2023-05-07T00:12:22;18.30;81.30
5520;DHT22;2782;52.362;10.012;2023-05-07T00:13:22;18.30;81.40
5520;DHT22;2782;52.362;10.012;2023-05-07T00:14:24;18.30;81.30
5520;DHT22;2782;52.362;10.012;2023-05-07T00:15:26;18.30;81.30
5520;DHT22;2782;52.362;10.012;2023-05-07T00:16:28;18.30;81.20
5520;DHT22;2782;52.362;10.012;2023-05-07T00:17:29;18.30;81.30
5520;DHT22;2782;52.362;10.012;2023-05-07T00:18:32;18.30;81.30
5520;DHT22;2782;52.362;10.012;2023-05-07T00:19:33;18.30;81.30
5520;DHT22;2782;52.362;10.012;2023-05-07T00:20:35;18.30;81.30
5520;DHT22;2782;52.362;10.012;2023-05-07T00:21:36;18.30;81.30
5520;DHT22;2782;52.362;10.012;2023-05-07T00:22:37;18.30;81.40
5520;DHT22;2782;52.362;10.012;2023-05-07T00:23:38;18.30;81.40
5520;DHT22;2782;52.362;10.012;2023-05-07T00:24:40;18.30;81.40
5520;DHT22;2782;52.362;10.012;2023-05-07T00:25:41;18.30;81.50
5520;DHT22;2782;52.362;10.012;2023-05-07T00:26:42;18.30;81.50
5520;DHT22;2782;52.362;10.012;2023-05-07T00:27:44;18.30;81.50
5520;DHT22;2782;52.362;10.012;2023-05-07T00:28:47;18.30;81.40
5520;DHT22;2782;52.362;10.012;2023-05-07T00:29:47;18.30;81.30
5520;DHT22;2782;52.362;10.012;2023-05-07T00:30:49;18.30;81.30
5520;DHT22;2782;52.362;10.012;2023-05-07T00:31:50;18.30;81.30
5520;DHT22;2782;52.362;10.012;2023-05-07T00:32:51;18.30;81.30
5520;DHT22;2782;52.362;10.012;2023-05-07T00:33:53;18.30;81.30
5520;DHT22;2782;52.362;10.012;2023-05-07T00:34:55;18.20;81.20
5520;DHT22;2782;52.362;10.012;2023-05-07T00:35:56;18.20;81.20
5520;DHT22;2782;52.362;10.012;2023-05-07T00:36:57;18.20;81.20
5520;DHT22;2782;52.362;10.012;2023-05-07T00:37:58;18.30;81.20
5520;DHT22;2782;52.362;10.012;2023-05-07T00:39:00;18.20;81.10
5520;DHT22;2782;52.362;10.012;2023-05-07T00:40:04;18.20;81.20
5520;DHT22;2782;52.362;10.012;2023-05-07T00:41:07;18.20;81.10
5520;DHT22;2782;52.362;10.012;2023-05-07T00:42:08;18.20;81.10
5520;DHT22;2782;52.362;10.012;2023-05-07T00:43:10;18.20;81.00
5520;DHT22;2782;52.362;10.012;2023-05-07T00:44:10;18.20;81.00
5520;DHT22;2782;52.362;10.012;2023-05-07T00:45:12;18.20;81.00
5520;DHT22;2782;52.362;10.012;2023-05-07T00:46:14;18.20;81.00
5520;DHT22;2782;52.362;10.012;2023-05-07T00:47:16;18.20;80.90
5520;DHT22;2782;52.362;10.012;2023-05-07T00:48:18;18.20;80.90
5520;DHT22;2782;52.362;10.012;2023-05-07T00:49:20;18.20;80.90
5520;DHT22;2782;52.362;10.012;2023-05-07T00:50:22;18.20;80.90
5520;DHT22;2782;52.362;10.012;2023-05-07T00:51:23;18.20;81.00
5520;DHT22;2782;52.362;10.012;2023-05-07T00:52:27;18.20;80.80
5520;DHT22;2782;52.362;10.012;2023-05-07T00:53:29;18.20;80.80
5520;DHT22;2782;52.362;10.012;2023-05-07T00:54:31;18.20;80.80
5520;DHT22;2782;52.362;10.012;2023-05-07T00:55:32;18.20;80.90
5520;DHT22;2782;52.362;10.012;2023-05-07T00:56:34;18.20;80.90
5520;DHT22;2782;52.362;10.012;2023-05-07T00:57:37;18.20;80.90
5520;DHT22;2782;52.362;10.012;2023-05-07T00:58:40;18.20;80.80
5520;DHT22;2782;52.362;10.012;2023-05-07T00:59:41;18.20;80.80
5520;DHT22;2782;52.362;10.012;2023-05-07T01:00:43;18.20;80.80
5520;DHT22;2782;52.362;10.012;2023-05-07T01:01:44;18.20;80.70
5520;DHT22;2782;52.362;10.012;2023-05-07T01:02:45;18.20;80.80
5520;DHT22;2782;52.362;10.012;2023-05-07T01:03:47;18.20;80.90
5520;DHT22;2782;52.362;10.012;2023-05-07T01:04:49;18.20;80.80
5520;DHT22;2782;52.362;10.012;2023-05-07T01:05:51;18.20;80.70
5520;DHT22;2782;52.362;10.012;2023-05-07T01:06:54;18.20;80.70
5520;DHT22;2782;52.362;10.012;2023-05-07T01:07:56;18.20;80.70
5520;DHT22;2782;52.362;10.012;2023-05-07T01:08:59;18.20;80.70
5520;DHT22;2782;52.362;10.012;2023-05-07T01:10:01;18.20;80.70
5520;DHT22;2782;52.362;10.012;2023-05-07T01:11:03;18.20;80.70
5520;DHT22;2782;52.362;10.012;2023-05-07T01:12:04;18.20;80.80
5520;DHT22;2782;52.362;10.012;2023-05-07T01:13:06;18.20;80.80
5520;DHT22;2782;52.362;10.012;2023-05-07T01:14:07;18.20;80.80
5520;DHT22;2782;52.362;10.012;2023-05-07T01:15:10;18.20;80.80
5520;DHT22;2782;52.362;10.012;2023-05-07T01:16:11;18.20;80.70
5520;DHT22;2782;52.362;10.012;2023-05-07T01:17:12;18.20;80.70
5520;DHT22;2782;52.362;10.012;2023-05-07T01:18:13;18.20;80.70
5520;DHT22;2782;52.362;10.012;2023-05-07T01:19:17;18.20;80.70
5520;DHT22;2782;52.362;10.012;2023-05-07T01:20:19;18.20;80.70
5520;DHT22;2782;52.362;10.012;2023-05-07T01:21:25;18.20;80.70
5520;DHT22;2782;52.362;10.012;2023-05-07T01:22:30;18.20;80.60
5520;DHT22;2782;52.362;10.012;2023-05-07T01:23:33;18.20;80.60
5520;DHT22;2782;52.362;10.012;2023-05-07T01:24:36;18.20;80.70
5520;DHT22;2782;52.362;10.012;2023-05-07T01:25:38;18.20;80.70
5520;DHT22;2782;52.362;10.012;2023-05-07T01:26:39;18.20;80.70
5520;DHT22;2782;52.362;10.012;2023-05-07T01:27:41;18.20;80.80
5520;DHT22;2782;52.362;10.012;2023-05-07T01:28:41;18.20;80.80
5520;DHT22;2782;52.362;10.012;2023-05-07T01:29:43;18.20;80.80
5520;DHT22;2782;52.362;10.012;2023-05-07T01:30:45;18.20;80.80
5520;DHT22;2782;52.362;10.012;2023-05-07T01:31:48;18.20;80.80
5520;DHT22;2782;52.362;10.012;2023-05-07T01:32:53;18.20;80.80
5520;DHT22;2782;52.362;10.012;2023-05-07T01:33:58;18.20;80.90
5520;DHT22;2782;52.362;10.012;2023-05-07T01:35:01;18.20;80.90
5520;DHT22;2782;52.362;10.012;2023-05-07T01:36:05;18.20;80.90
5520;DHT22;2782;52.362;10.012;2023-05-07T01:37:06;18.10;80.90
5520;DHT22;2782;52.362;10.012;2023-05-07T01:38:09;18.20;81.00
5520;DHT22;2782;52.362;10.012;2023-05-07T01:39:10;18.10;80.90
5520;DHT22;2782;52.362;10.012;2023-05-07T01:40:12;18.20;81.10
5520;DHT22;2782;52.362;10.012;2023-05-07T01:41:13;18.10;80.90
5520;DHT22;2782;52.362;10.012;2023-05-07T01:42:15;18.20;81.10
5520;DHT22;2782;52.362;10.012;2023-05-07T01:43:16;18.20;81.10
5520;DHT22;2782;52.362;10.012;2023-05-07T01:44:18;18.10;81.00
5520;DHT22;2782;52.362;10.012;2023-05-07T01:45:20;18.10;81.00
5520;DHT22;2782;52.362;10.012;2023-05-07T01:46:21;18.10;81.00
5520;DHT22;2782;52.362;10.012;2023-05-07T01:47:23;18.10;80.90
5520;DHT22;2782;52.362;10.012;2023-05-07T01:48:25;18.20;81.00
5520;DHT22;2782;52.362;10.012;2023-05-07T01:49:26;18.10;80.90
5520;DHT22;2782;52.362;10.012;2023-05-07T01:50:28;18.20;81.00
5520;DHT22;2782;52.362;10.012;2023-05-07T01:51:29;18.10;80.90
5520;DHT22;2782;52.362;10.012;2023-05-07T01:52:31;18.20;80.90
5520;DHT22;2782;52.362;10.012;2023-05-07T01:53:37;18.20;81.00
5520;DHT22;2782;52.362;10.012;2023-05-07T01:54:39;18.20;81.00
5520;DHT22;2782;52.362;10.012;2023-05-07T01:55:39;18.10;80.90
5520;DHT22;2782;52.362;10.012;2023-05-07T01:56:41;18.10;80.90
5520;DHT22;2782;52.362;10.012;2023-05-07T01:57:41;18.10;80.80
5520;DHT22;2782;52.362;10.012;2023-05-07T01:58:44;18.10;80.80
5520;DHT22;2782;52.362;10.012;2023-05-07T01:59:44;18.10;81.40
5520;DHT22;2782;52.362;10.012;2023-05-07T02:03:53;18.10;80.70
5520;DHT22;2782;52.362;10.012;2023-05-07T02:04:55;18.10;80.80
5520;DHT22;2782;52.362;10.012;2023-05-07T02:05:56;18.10;81.00
5520;DHT22;2782;52.362;10.012;2023-05-07T02:06:57;18.10;81.00
5520;DHT22;2782;52.362;10.012;2023-05-07T02:07:58;18.10;81.00
5520;DHT22;2782;52.362;10.012;2023-05-07T02:09:01;18.10;81.00
5520;DHT22;2782;52.362;10.012;2023-05-07T02:10:02;18.10;80.90
5520;DHT22;2782;52.362;10.012;2023-05-07T02:11:04;18.10;80.90
5520;DHT22;2782;52.362;10.012;2023-05-07T02:12:05;18.10;80.90
5520;DHT22;2782;52.362;10.012;2023-05-07T02:13:06;18.10;80.80
5520;DHT22;2782;52.362;10.012;2023-05-07T02:14:07;18.10;80.70
5520;DHT22;2782;52.362;10.012;2023-05-07T02:15:09;18.20;80.80
5520;DHT22;2782;52.362;10.012;2023-05-07T02:16:10;18.10;80.70
5520;DHT22;2782;52.362;10.012;2023-05-07T02:17:14;18.10;80.60
5520;DHT22;2782;52.362;10.012;2023-05-07T02:18:16;18.10;80.50
5520;DHT22;2782;52.362;10.012;2023-05-07T02:19:18;18.10;80.50
5520;DHT22;2782;52.362;10.012;2023-05-07T02:20:21;18.10;80.40
5520;DHT22;2782;52.362;10.012;2023-05-07T02:21:22;18.10;80.50
5520;DHT22;2782;52.362;10.012;2023-05-07T02:22:23;18.20;80.50
5520;DHT22;2782;52.362;10.012;2023-05-07T02:23:24;18.10;80.50
5520;DHT22;2782;52.362;10.012;2023-05-07T02:24:27;18.10;80.50
5520;DHT22;2782;52.362;10.012;2023-05-07T02:25:27;18.10;80.60
5520;DHT22;2782;52.362;10.012;2023-05-07T02:26:29;18.10;80.60
5520;DHT22;2782;52.362;10.012;2023-05-07T02:27:30;18.10;80.60
5520;DHT22;2782;52.362;10.012;2023-05-07T02:28:32;18.10;80.70
5520;DHT22;2782;52.362;10.012;2023-05-07T02:29:32;18.10;80.60
5520;DHT22;2782;52.362;10.012;2023-05-07T02:30:34;18.10;80.50
5520;DHT22;2782;52.362;10.012;2023-05-07T02:31:34;18.10;80.60
5520;DHT22;2782;52.362;10.012;2023-05-07T02:32:36;18.10;80.70
5520;DHT22;2782;52.362;10.012;2023-05-07T02:33:36;18.10;80.70
5520;DHT22;2782;52.362;10.012;2023-05-07T02:34:38;18.10;81.40
5520;DHT22;2782;52.362;10.012;2023-05-07T02:35:39;18.10;80.70
5520;DHT22;2782;52.362;10.012;2023-05-07T02:36:40;18.10;80.70
5520;DHT22;2782;52.362;10.012;2023-05-07T02:37:41;18.10;80.50
5520;DHT22;2782;52.362;10.012;2023-05-07T02:38:42;18.10;80.60
5520;DHT22;2782;52.362;10.012;2023-05-07T02:39:44;18.10;80.70
5520;DHT22;2782;52.362;10.012;2023-05-07T02:40:46;18.10;80.70
5520;DHT22;2782;52.362;10.012;2023-05-07T02:41:47;18.10;80.80
5520;DHT22;2782;52.362;10.012;2023-05-07T02:42:48;18.10;80.90
5520;DHT22;2782;52.362;10.012;2023-05-07T02:43:49;18.10;80.90
5520;DHT22;2782;52.362;10.012;2023-05-07T02:44:50;18.10;81.60
5520;DHT22;2782;52.362;10.012;2023-05-07T02:46:00;18.10;80.70
5520;DHT22;2782;52.362;10.012;2023-05-07T02:47:02;18.10;80.80
5520;DHT22;2782;52.362;10.012;2023-05-07T02:48:03;18.10;80.70
5520;DHT22;2782;52.362;10.012;2023-05-07T02:49:05;18.10;80.70
5520;DHT22;2782;52.362;10.012;2023-05-07T02:50:07;18.10;80.90
5520;DHT22;2782;52.362;10.012;2023-05-07T02:51:09;18.10;81.00
5520;DHT22;2782;52.362;10.012;2023-05-07T02:52:09;18.10;81.00
5520;DHT22;2782;52.362;10.012;2023-05-07T02:53:11;18.10;80.90
5520;DHT22;2782;52.362;10.012;2023-05-07T02:54:11;18.10;80.90
5520;DHT22;2782;52.362;10.012;2023-05-07T02:55:14;18.10;80.90
5520;DHT22;2782;52.362;10.012;2023-05-07T02:56:15;18.10;81.00
5520;DHT22;2782;52.362;10.012;2023-05-07T02:57:17;18.10;81.00
5520;DHT22;2782;52.362;10.012;2023-05-07T02:58:17;18.10;81.50
5520;DHT22;2782;52.362;10.012;2023-05-07T02:59:19;18.10;81.00
5520;DHT22;2782;52.362;10.012;2023-05-07T03:00:20;18.10;81.00
5520;DHT22;2782;52.362;10.012;2023-05-07T03:01:22;18.10;80.90
5520;DHT22;2782;52.362;10.012;2023-05-07T03:02:23;18.10;80.70
5520;DHT22;2782;52.362;10.012;2023-05-07T03:03:25;18.10;80.80
5520;DHT22;2782;52.362;10.012;2023-05-07T03:04:25;18.10;80.70
5520;DHT22;2782;52.362;10.012;2023-05-07T03:05:27;18.10;80.70
5520;DHT22;2782;52.362;10.012;2023-05-07T03:06:28;18.10;80.70
5520;DHT22;2782;52.362;10.012;2023-05-07T03:07:29;18.10;80.70
5520;DHT22;2782;52.362;10.012;2023-05-07T03:08:30;18.10;80.70
5520;DHT22;2782;52.362;10.012;2023-05-07T03:09:31;18.10;80.60
5520;DHT22;2782;52.362;10.012;2023-05-07T03:10:33;18.10;81.50
5520;DHT22;2782;52.362;10.012;2023-05-07T03:11:35;18.10;80.90
5520;DHT22;2782;52.362;10.012;2023-05-07T03:12:36;18.10;80.90
5520;DHT22;2782;52.362;10.012;2023-05-07T03:13:37;18.10;80.70
5520;DHT22;2782;52.362;10.012;2023-05-07T03:14:38;18.10;80.80
5520;DHT22;2782;52.362;10.012;2023-05-07T03:15:39;18.10;80.80
5520;DHT22;2782;52.362;10.012;2023-05-07T03:16:40;18.10;80.80
5520;DHT22;2782;52.362;10.012;2023-05-07T03:17:42;18.10;80.90
5520;DHT22;2782;52.362;10.012;2023-05-07T03:18:42;18.00;80.90
5520;DHT22;2782;52.362;10.012;2023-05-07T03:19:44;18.10;81.70
5520;DHT22;2782;52.362;10.012;2023-05-07T03:20:45;18.10;80.90
5520;DHT22;2782;52.362;10.012;2023-05-07T03:21:47;18.10;81.00
5520;DHT22;2782;52.362;10.012;2023-05-07T03:22:48;18.10;80.90
5520;DHT22;2782;52.362;10.012;2023-05-07T03:23:49;18.10;80.90
5520;DHT22;2782;52.362;10.012;2023-05-07T03:24:50;18.10;81.00
5520;DHT22;2782;52.362;10.012;2023-05-07T03:25:53;18.00;80.90
5520;DHT22;2782;52.362;10.012;2023-05-07T03:26:53;18.10;81.00
5520;DHT22;2782;52.362;10.012;2023-05-07T03:27:55;18.00;80.90
5520;DHT22;2782;52.362;10.012;2023-05-07T03:28:55;18.00;80.80
5520;DHT22;2782;52.362;10.012;2023-05-07T03:29:57;18.00;80.80
5520;DHT22;2782;52.362;10.012;2023-05-07T03:30:58;18.10;80.90
5520;DHT22;2782;52.362;10.012;2023-05-07T03:31:59;18.00;80.80
5520;DHT22;2782;52.362;10.012;2023-05-07T03:33:00;18.00;80.80
5520;DHT22;2782;52.362;10.012;2023-05-07T03:34:02;18.10;81.00
5520;DHT22;2782;52.362;10.012;2023-05-07T03:35:03;18.00;80.90
5520;DHT22;2782;52.362;10.012;2023-05-07T03:36:05;18.00;80.80
5520;DHT22;2782;52.362;10.012;2023-05-07T03:37:06;18.00;80.30
5520;DHT22;2782;52.362;10.012;2023-05-07T03:38:07;18.00;80.30
5520;DHT22;2782;52.362;10.012;2023-05-07T03:39:09;18.00;80.30
5520;DHT22;2782;52.362;10.012;2023-05-07T03:40:10;18.00;80.10
5520;DHT22;2782;52.362;10.012;2023-05-07T03:41:14;18.00;79.90
5520;DHT22;2782;52.362;10.012;2023-05-07T03:42:14;18.00;79.90
5520;DHT22;2782;52.362;10.012;2023-05-07T03:43:16;18.00;80.10
5520;DHT22;2782;52.362;10.012;2023-05-07T03:44:17;18.00;80.30
5520;DHT22;2782;52.362;10.012;2023-05-07T03:45:19;18.00;80.40
5520;DHT22;2782;52.362;10.012;2023-05-07T03:46:19;18.00;80.70
5520;DHT22;2782;52.362;10.012;2023-05-07T03:47:21;18.00;80.70
5520;DHT22;2782;52.362;10.012;2023-05-07T03:48:22;18.00;80.80
5520;DHT22;2782;52.362;10.012;2023-05-07T03:49:23;18.00;80.70
5520;DHT22;2782;52.362;10.012;2023-05-07T03:50:24;18.00;80.80
5520;DHT22;2782;52.362;10.012;2023-05-07T03:51:25;18.00;80.80
5520;DHT22;2782;52.362;10.012;2023-05-07T03:52:26;18.00;81.00
5520;DHT22;2782;52.362;10.012;2023-05-07T03:53:28;18.00;81.10
5520;DHT22;2782;52.362;10.012;2023-05-07T03:54:28;18.00;81.00
5520;DHT22;2782;52.362;10.012;2023-05-07T03:55:30;18.00;80.80
5520;DHT22;2782;52.362;10.012;2023-05-07T03:56:32;18.00;80.90
5520;DHT22;2782;52.362;10.012;2023-05-07T03:57:33;18.00;80.70
5520;DHT22;2782;52.362;10.012;2023-05-07T03:58:34;18.00;80.80
5520;DHT22;2782;52.362;10.012;2023-05-07T03:59:35;18.00;81.00
5520;DHT22;2782;52.362;10.012;2023-05-07T04:00:36;18.00;80.90
5520;DHT22;2782;52.362;10.012;2023-05-07T04:01:38;18.00;81.10
5520;DHT22;2782;52.362;10.012;2023-05-07T04:02:39;18.00;81.10
5520;DHT22;2782;52.362;10.012;2023-05-07T04:03:40;18.00;81.10
5520;DHT22;2782;52.362;10.012;2023-05-07T04:04:41;18.00;81.10
5520;DHT22;2782;52.362;10.012;2023-05-07T04:05:43;18.00;80.90
5520;DHT22;2782;52.362;10.012;2023-05-07T04:06:44;18.00;81.00
5520;DHT22;2782;52.362;10.012;2023-05-07T04:07:45;18.00;81.10
5520;DHT22;2782;52.362;10.012;2023-05-07T04:08:46;18.00;81.20
5520;DHT22;2782;52.362;10.012;2023-05-07T04:09:48;18.00;81.10
5520;DHT22;2782;52.362;10.012;2023-05-07T04:10:49;18.00;81.80
5520;DHT22;2782;52.362;10.012;2023-05-07T04:11:56;18.00;81.10
5520;DHT22;2782;52.362;10.012;2023-05-07T04:12:57;18.00;81.90
5520;DHT22;2782;52.362;10.012;2023-05-07T04:13:58;18.00;81.20
5520;DHT22;2782;52.362;10.012;2023-05-07T04:14:59;18.00;81.20
5520;DHT22;2782;52.362;10.012;2023-05-07T04:16:02;18.00;81.30
5520;DHT22;2782;52.362;10.012;2023-05-07T04:17:03;18.00;81.30
5520;DHT22;2782;52.362;10.012;2023-05-07T04:18:04;18.00;81.20
5520;DHT22;2782;52.362;10.012;2023-05-07T04:19:05;18.00;81.20
5520;DHT22;2782;52.362;10.012;2023-05-07T04:20:09;18.00;81.30
5520;DHT22;2782;52.362;10.012;2023-05-07T04:21:14;18.00;81.20
5520;DHT22;2782;52.362;10.012;2023-05-07T04:22:16;18.00;81.10
5520;DHT22;2782;52.362;10.012;2023-05-07T04:23:16;18.00;81.10
5520;DHT22;2782;52.362;10.012;2023-05-07T04:24:18;18.00;81.10
5520;DHT22;2782;52.362;10.012;2023-05-07T04:25:19;18.00;81.20
5520;DHT22;2782;52.362;10.012;2023-05-07T04:26:20;18.00;81.20
5520;DHT22;2782;52.362;10.012;2023-05-07T04:27:23;18.00;81.20
5520;DHT22;2782;52.362;10.012;2023-05-07T04:28:24;18.00;81.10
5520;DHT22;2782;52.362;10.012;2023-05-07T04:29:26;18.00;81.10
5520;DHT22;2782;52.362;10.012;2023-05-07T04:30:28;18.00;80.80
5520;DHT22;2782;52.362;10.012;2023-05-07T04:31:29;18.00;80.90
5520;DHT22;2782;52.362;10.012;2023-05-07T04:32:31;18.00;80.90
5520;DHT22;2782;52.362;10.012;2023-05-07T04:33:32;18.00;81.00
5520;DHT22;2782;52.362;10.012;2023-05-07T04:34:34;18.00;81.20
5520;DHT22;2782;52.362;10.012;2023-05-07T04:35:35;18.00;81.20
5520;DHT22;2782;52.362;10.012;2023-05-07T04:36:37;18.00;81.20
5520;DHT22;2782;52.362;10.012;2023-05-07T04:37:37;18.00;81.10
5520;DHT22;2782;52.362;10.012;2023-05-07T04:38:39;17.90;81.00
5520;DHT22;2782;52.362;10.012;2023-05-07T04:39:41;18.00;81.80
5520;DHT22;2782;52.362;10.012;2023-05-07T04:40:42;18.00;81.10
5520;DHT22;2782;52.362;10.012;2023-05-07T04:41:43;18.00;81.20
5520;DHT22;2782;52.362;10.012;2023-05-07T04:42:46;17.90;81.00
5520;DHT22;2782;52.362;10.012;2023-05-07T04:43:47;18.00;81.10
5520;DHT22;2782;52.362;10.012;2023-05-07T04:44:52;18.00;81.20
5520;DHT22;2782;52.362;10.012;2023-05-07T04:45:53;18.00;81.00
5520;DHT22;2782;52.362;10.012;2023-05-07T04:46:54;18.00;80.90
5520;DHT22;2782;52.362;10.012;2023-05-07T04:47:55;18.00;80.90
5520;DHT22;2782;52.362;10.012;2023-05-07T04:48:57;18.00;80.80
5520;DHT22;2782;52.362;10.012;2023-05-07T04:49:57;18.00;80.80
5520;DHT22;2782;52.362;10.012;2023-05-07T04:50:59;18.00;80.70
5520;DHT22;2782;52.362;10.012;2023-05-07T04:52:00;18.00;80.60
5520;DHT22;2782;52.362;10.012;2023-05-07T04:53:03;18.00;80.60
5520;DHT22;2782;52.362;10.012;2023-05-07T04:54:04;18.00;80.70
5520;DHT22;2782;52.362;10.012;2023-05-07T04:55:06;18.00;80.60
5520;DHT22;2782;52.362;10.012;2023-05-07T04:56:07;18.00;80.60
5520;DHT22;2782;52.362;10.012;2023-05-07T04:57:09;18.00;80.60
5520;DHT22;2782;52.362;10.012;2023-05-07T04:58:11;18.00;80.60
5520;DHT22;2782;52.362;10.012;2023-05-07T04:59:13;18.00;80.60
5520;DHT22;2782;52.362;10.012;2023-05-07T05:00:14;18.00;80.70
5520;DHT22;2782;52.362;10.012;2023-05-07T05:01:15;18.00;80.70
5520;DHT22;2782;52.362;10.012;2023-05-07T05:02:16;18.00;80.80
5520;DHT22;2782;52.362;10.012;2023-05-07T05:03:17;18.00;80.80
5520;DHT22;2782;52.362;10.012;2023-05-07T05:04:18;18.10;81.00
5520;DHT22;2782;52.362;10.012;2023-05-07T05:05:19;18.00;80.90
5520;DHT22;2782;52.362;10.012;2023-05-07T05:06:21;18.10;81.00
5520;DHT22;2782;52.362;10.012;2023-05-07T05:07:21;18.10;81.00
5520;DHT22;2782;52.362;10.012;2023-05-07T05:08:23;18.10;81.10
5520;DHT22;2782;52.362;10.012;2023-05-07T05:09:24;18.10;81.10
5520;DHT22;2782;52.362;10.012;2023-05-07T05:10:25;18.10;81.10
5520;DHT22;2782;52.362;10.012;2023-05-07T05:11:26;18.10;81.20
5520;DHT22;2782;52.362;10.012;2023-05-07T05:12:27;18.10;81.10
5520;DHT22;2782;52.362;10.012;2023-05-07T05:13:29;18.10;81.20
5520;DHT22;2782;52.362;10.012;2023-05-07T05:14:31;18.10;81.20
5520;DHT22;2782;52.362;10.012;2023-05-07T05:15:32;18.10;81.20
5520;DHT22;2782;52.362;10.012;2023-05-07T05:16:33;18.10;81.20
5520;DHT22;2782;52.362;10.012;2023-05-07T05:17:34;18.10;81.20
5520;DHT22;2782;52.362;10.012;2023-05-07T05:18:36;18.10;81.20
5520;DHT22;2782;52.362;10.012;2023-05-07T05:19:38;18.10;81.60
5520;DHT22;2782;52.362;10.012;2023-05-07T05:20:40;18.10;81.40
5520;DHT22;2782;52.362;10.012;2023-05-07T05:21:40;18.10;81.20
5520;DHT22;2782;52.362;10.012;2023-05-07T05:22:42;18.20;81.30
5520;DHT22;2782;52.362;10.012;2023-05-07T05:23:43;18.10;81.20
5520;DHT22;2782;52.362;10.012;2023-05-07T05:24:44;18.20;81.20
5520;DHT22;2782;52.362;10.012;2023-05-07T05:25:46;18.10;81.10
5520;DHT22;2782;52.362;10.012;2023-05-07T05:26:47;18.10;81.10
5520;DHT22;2782;52.362;10.012;2023-05-07T05:27:48;18.20;81.00
5520;DHT22;2782;52.362;10.012;2023-05-07T05:28:50;18.20;81.00
5520;DHT22;2782;52.362;10.012;2023-05-07T05:29:52;18.20;81.00
5520;DHT22;2782;52.362;10.012;2023-05-07T05:30:52;18.20;81.10
5520;DHT22;2782;52.362;10.012;2023-05-07T05:31:54;18.20;81.00
5520;DHT22;2782;52.362;10.012;2023-05-07T05:32:55;18.20;80.80
5520;DHT22;2782;52.362;10.012;2023-05-07T05:33:57;18.20;80.80
5520;DHT22;2782;52.362;10.012;2023-05-07T05:34:57;18.20;80.70
5520;DHT22;2782;52.362;10.012;2023-05-07T05:35:59;18.20;80.80
5520;DHT22;2782;52.362;10.012;2023-05-07T05:37:00;18.20;80.80
5520;DHT22;2782;52.362;10.012;2023-05-07T05:38:02;18.20;80.80
5520;DHT22;2782;52.362;10.012;2023-05-07T05:39:02;18.20;80.30
5520;DHT22;2782;52.362;10.012;2023-05-07T05:40:05;18.20;80.00
5520;DHT22;2782;52.362;10.012;2023-05-07T05:41:06;18.20;80.50
5520;DHT22;2782;52.362;10.012;2023-05-07T05:42:07;18.20;80.50
5520;DHT22;2782;52.362;10.012;2023-05-07T05:43:08;18.20;80.30
5520;DHT22;2782;52.362;10.012;2023-05-07T05:44:11;18.20;80.40
5520;DHT22;2782;52.362;10.012;2023-05-07T05:45:11;18.20;80.40
5520;DHT22;2782;52.362;10.012;2023-05-07T05:46:13;18.20;80.60
5520;DHT22;2782;52.362;10.012;2023-05-07T05:47:14;18.20;80.60
5520;DHT22;2782;52.362;10.012;2023-05-07T05:48:15;18.20;80.20
5520;DHT22;2782;52.362;10.012;2023-05-07T05:49:16;18.20;79.70
5520;DHT22;2782;52.362;10.012;2023-05-07T05:50:18;18.20;79.50
5520;DHT22;2782;52.362;10.012;2023-05-07T05:51:18;18.20;80.70
5520;DHT22;2782;52.362;10.012;2023-05-07T05:52:20;18.20;80.90
5520;DHT22;2782;52.362;10.012;2023-05-07T05:53:24;18.20;80.40
5520;DHT22;2782;52.362;10.012;2023-05-07T05:54:25;18.20;82.80
5520;DHT22;2782;52.362;10.012;2023-05-07T05:55:26;18.20;87.20
5520;DHT22;2782;52.362;10.012;2023-05-07T05:56:28;18.20;88.40
5520;DHT22;2782;52.362;10.012;2023-05-07T05:57:28;18.20;88.90
5520;DHT22;2782;52.362;10.012;2023-05-07T05:58:30;18.20;84.60
5520;DHT22;2782;52.362;10.012;2023-05-07T05:59:32;18.20;87.40
5520;DHT22;2782;52.362;10.012;2023-05-07T06:00:34;18.20;89.20
5520;DHT22;2782;52.362;10.012;2023-05-07T06:01:34;18.20;89.80
5520;DHT22;2782;52.362;10.012;2023-05-07T06:02:36;18.20;88.90
5520;DHT22;2782;52.362;10.012;2023-05-07T06:03:37;18.20;89.90
5520;DHT22;2782;52.362;10.012;2023-05-07T06:04:39;18.20;90.30
5520;DHT22;2782;52.362;10.012;2023-05-07T06:05:40;18.20;90.90
5520;DHT22;2782;52.362;10.012;2023-05-07T06:06:41;18.30;91.10
5520;DHT22;2782;52.362;10.012;2023-05-07T06:07:42;18.20;91.30
5520;DHT22;2782;52.362;10.012;2023-05-07T06:08:43;18.30;91.10
5520;DHT22;2782;52.362;10.012;2023-05-07T06:09:44;18.30;91.60
5520;DHT22;2782;52.362;10.012;2023-05-07T06:10:46;18.30;92.30
5520;DHT22;2782;52.362;10.012;2023-05-07T06:11:46;18.30;92.40
5520;DHT22;2782;52.362;10.012;2023-05-07T06:12:48;18.30;92.60
5520;DHT22;2782;52.362;10.012;2023-05-07T06:13:48;18.40;92.90
5520;DHT22;2782;52.362;10.012;2023-05-07T06:14:51;18.40;93.30
5520;DHT22;2782;52.362;10.012;2023-05-07T06:15:52;18.40;93.30
5520;DHT22;2782;52.362;10.012;2023-05-07T06:16:54;18.40;93.40
5520;DHT22;2782;52.362;10.012;2023-05-07T06:17:54;18.40;93.40
5520;DHT22;2782;52.362;10.012;2023-05-07T06:18:57;18.40;93.40
5520;DHT22;2782;52.362;10.012;2023-05-07T06:19:58;18.50;93.50
5520;DHT22;2782;52.362;10.012;2023-05-07T06:20:59;18.50;93.60
5520;DHT22;2782;52.362;10.012;2023-05-07T06:22:00;18.50;93.80
5520;DHT22;2782;52.362;10.012;2023-05-07T06:23:02;18.50;93.60
5520;DHT22;2782;52.362;10.012;2023-05-07T06:24:03;18.50;93.50
5520;DHT22;2782;52.362;10.012;2023-05-07T06:25:06;18.50;93.60
5520;DHT22;2782;52.362;10.012;2023-05-07T06:26:07;18.50;93.60
5520;DHT22;2782;52.362;10.012;2023-05-07T06:27:08;18.60;93.70
5520;DHT22;2782;52.362;10.012;2023-05-07T06:28:09;18.60;93.60
5520;DHT22;2782;52.362;10.012;2023-05-07T06:29:11;18.60;93.60
5520;DHT22;2782;52.362;10.012;2023-05-07T06:30:13;18.60;93.60
5520;DHT22;2782;52.362;10.012;2023-05-07T06:31:16;18.60;93.70
5520;DHT22;2782;52.362;10.012;2023-05-07T06:32:17;18.60;93.70
5520;DHT22;2782;52.362;10.012;2023-05-07T06:33:19;18.60;93.60
5520;DHT22;2782;52.362;10.012;2023-05-07T06:34:20;18.60;93.70
5520;DHT22;2782;52.362;10.012;2023-05-07T06:35:21;18.60;93.70
5520;DHT22;2782;52.362;10.012;2023-05-07T06:36:22;18.70;93.80
5520;DHT22;2782;52.362;10.012;2023-05-07T06:37:23;18.70;93.70
5520;DHT22;2782;52.362;10.012;2023-05-07T06:38:24;18.70;93.70